Terminal Aerodrome Forecast
Issued by NWS New Orleans/Baton Rouge, LA

Home | Current Version | Previous Version | Text Only | Print | Product List | Glossary On
Versions: 1 2 3 4 5 6 7 8 9 10 11 12 13 14 15 16 17 18
000
FTUS44 KLIX 182300
TAFBTR
TAF
KBTR 182320Z 1900/1924 VRB03KT P6SM VCSH SCT025 BKN035
      TEMPO 1900/1902 2SM TSRA BKN025CB
     FM190400 VRB02KT P6SM BKN050
     FM190800 00000KT 3SM BR SCT030 BKN100
      TEMPO 1909/1912 BKN015
     FM191300 09008KT P6SM BKN080
     FM191800 10008KT P6SM SCT035 BKN100=

USA.gov is the U.S. government's official web portal to all federal, state and local government web resources and services.